sensor_id;sensor_type;location;lat;lon;timestamp;P1;durP1;ratioP1;P2;durP2;ratioP2
7647;SDS011;3866;48.020;11.720;2022-10-13T00:01:25;22.13;;;14.80;;
7647;SDS011;3866;48.020;11.720;2022-10-13T00:03:52;19.33;;;15.07;;
7647;SDS011;3866;48.020;11.720;2022-10-13T00:06:22;20.10;;;14.33;;
7647;SDS011;3866;48.020;11.720;2022-10-13T00:08:50;19.37;;;14.63;;
7647;SDS011;3866;48.020;11.720;2022-10-13T00:11:18;19.20;;;14.80;;
7647;SDS011;3866;48.020;11.720;2022-10-13T00:13:46;20.70;;;13.97;;
7647;SDS011;3866;48.020;11.720;2022-10-13T00:16:15;19.23;;;15.47;;
7647;SDS011;3866;48.020;11.720;2022-10-13T00:18:43;18.67;;;14.60;;
7647;SDS011;3866;48.020;11.720;2022-10-13T00:21:12;18.40;;;14.20;;
7647;SDS011;3866;48.020;11.720;2022-10-13T00:23:42;18.47;;;13.97;;
7647;SDS011;3866;48.020;11.720;2022-10-13T00:26:10;16.37;;;13.40;;
7647;SDS011;3866;48.020;11.720;2022-10-13T00:28:41;23.93;;;13.83;;
7647;SDS011;3866;48.020;11.720;2022-10-13T00:31:14;17.57;;;13.10;;
7647;SDS011;3866;48.020;11.720;2022-10-13T00:33:42;16.37;;;12.90;;
7647;SDS011;3866;48.020;11.720;2022-10-13T00:36:09;25.13;;;14.47;;
7647;SDS011;3866;48.020;11.720;2022-10-13T00:38:36;17.17;;;13.77;;
7647;SDS011;3866;48.020;11.720;2022-10-13T00:41:04;19.93;;;14.07;;
7647;SDS011;3866;48.020;11.720;2022-10-13T00:43:54;16.80;;;13.90;;
7647;SDS011;3866;48.020;11.720;2022-10-13T00:46:24;17.83;;;13.23;;
7647;SDS011;3866;48.020;11.720;2022-10-13T00:48:52;21.93;;;13.23;;
7647;SDS011;3866;48.020;11.720;2022-10-13T00:51:21;17.50;;;12.57;;
7647;SDS011;3866;48.020;11.720;2022-10-13T00:53:51;17.27;;;13.10;;
7647;SDS011;3866;48.020;11.720;2022-10-13T00:56:21;18.07;;;13.40;;
7647;SDS011;3866;48.020;11.720;2022-10-13T00:58:50;18.63;;;12.67;;
7647;SDS011;3866;48.020;11.720;2022-10-13T01:01:18;15.47;;;12.00;;
7647;SDS011;3866;48.020;11.720;2022-10-13T01:03:45;16.33;;;12.17;;
7647;SDS011;3866;48.020;11.720;2022-10-13T01:06:12;18.73;;;13.20;;
7647;SDS011;3866;48.020;11.720;2022-10-13T01:08:40;18.33;;;12.90;;
7647;SDS011;3866;48.020;11.720;2022-10-13T01:11:15;18.80;;;13.07;;
7647;SDS011;3866;48.020;11.720;2022-10-13T01:13:51;22.80;;;13.77;;
7647;SDS011;3866;48.020;11.720;2022-10-13T01:16:26;18.97;;;13.03;;
7647;SDS011;3866;48.020;11.720;2022-10-13T01:19:02;17.80;;;12.60;;
7647;SDS011;3866;48.020;11.720;2022-10-13T01:21:46;17.10;;;12.93;;
7647;SDS011;3866;48.020;11.720;2022-10-13T01:24:27;15.13;;;11.30;;
7647;SDS011;3866;48.020;11.720;2022-10-13T01:27:12;16.47;;;11.07;;
7647;SDS011;3866;48.020;11.720;2022-10-13T01:30:14;15.97;;;11.50;;
7647;SDS011;3866;48.020;11.720;2022-10-13T01:32:52;16.00;;;11.20;;
7647;SDS011;3866;48.020;11.720;2022-10-13T01:35:35;17.17;;;10.57;;
7647;SDS011;3866;48.020;11.720;2022-10-13T01:38:13;18.20;;;9.97;;
7647;SDS011;3866;48.020;11.720;2022-10-13T01:40:50;15.60;;;10.47;;
7647;SDS011;3866;48.020;11.720;2022-10-13T01:43:26;17.13;;;10.57;;
7647;SDS011;3866;48.020;11.720;2022-10-13T01:45:57;13.63;;;10.00;;
7647;SDS011;3866;48.020;11.720;2022-10-13T01:48:29;13.43;;;9.43;;
7647;SDS011;3866;48.020;11.720;2022-10-13T01:50:57;17.13;;;10.97;;
7647;SDS011;3866;48.020;11.720;2022-10-13T01:53:25;12.87;;;9.90;;
7647;SDS011;3866;48.020;11.720;2022-10-13T01:55:54;11.43;;;9.27;;
7647;SDS011;3866;48.020;11.720;2022-10-13T01:58:23;14.83;;;10.03;;
7647;SDS011;3866;48.020;11.720;2022-10-13T02:00:56;12.87;;;9.67;;
7647;SDS011;3866;48.020;11.720;2022-10-13T02:03:33;12.87;;;9.30;;
7647;SDS011;3866;48.020;11.720;2022-10-13T02:06:11;16.23;;;10.13;;
7647;SDS011;3866;48.020;11.720;2022-10-13T02:08:46;10.67;;;8.70;;
7647;SDS011;3866;48.020;11.720;2022-10-13T02:11:21;14.83;;;9.60;;
7647;SDS011;3866;48.020;11.720;2022-10-13T02:13:49;9.93;;;8.63;;
7647;SDS011;3866;48.020;11.720;2022-10-13T02:16:24;12.47;;;8.87;;
7647;SDS011;3866;48.020;11.720;2022-10-13T02:18:53;12.13;;;8.67;;
7647;SDS011;3866;48.020;11.720;2022-10-13T02:21:22;10.87;;;8.20;;
7647;SDS011;3866;48.020;11.720;2022-10-13T02:23:50;10.93;;;7.70;;
7647;SDS011;3866;48.020;11.720;2022-10-13T02:26:16;13.80;;;9.07;;
7647;SDS011;3866;48.020;11.720;2022-10-13T02:28:44;15.17;;;9.50;;
7647;SDS011;3866;48.020;11.720;2022-10-13T02:31:11;12.00;;;8.53;;
7647;SDS011;3866;48.020;11.720;2022-10-13T02:33:39;11.20;;;8.23;;
7647;SDS011;3866;48.020;11.720;2022-10-13T02:36:06;12.57;;;7.27;;
7647;SDS011;3866;48.020;11.720;2022-10-13T02:38:33;10.57;;;7.83;;
7647;SDS011;3866;48.020;11.720;2022-10-13T02:41:00;13.70;;;11.53;;
7647;SDS011;3866;48.020;11.720;2022-10-13T02:43:27;13.80;;;12.50;;
7647;SDS011;3866;48.020;11.720;2022-10-13T02:45:54;12.80;;;11.50;;
7647;SDS011;3866;48.020;11.720;2022-10-13T02:48:21;10.90;;;7.03;;
7647;SDS011;3866;48.020;11.720;2022-10-13T02:50:49;10.17;;;7.10;;
7647;SDS011;3866;48.020;11.720;2022-10-13T02:53:16;8.00;;;6.70;;
7647;SDS011;3866;48.020;11.720;2022-10-13T02:55:42;10.97;;;7.23;;
7647;SDS011;3866;48.020;11.720;2022-10-13T02:58:09;12.63;;;6.60;;
7647;SDS011;3866;48.020;11.720;2022-10-13T03:00:36;9.10;;;7.17;;
7647;SDS011;3866;48.020;11.720;2022-10-13T03:03:04;8.90;;;6.70;;
7647;SDS011;3866;48.020;11.720;2022-10-13T03:05:32;9.70;;;6.47;;
7647;SDS011;3866;48.020;11.720;2022-10-13T03:08:01;9.47;;;6.97;;
7647;SDS011;3866;48.020;11.720;2022-10-13T03:10:28;12.10;;;7.57;;
7647;SDS011;3866;48.020;11.720;2022-10-13T03:12:56;9.03;;;6.63;;
7647;SDS011;3866;48.020;11.720;2022-10-13T03:15:23;10.20;;;7.60;;
7647;SDS011;3866;48.020;11.720;2022-10-13T03:17:50;10.13;;;7.03;;
7647;SDS011;3866;48.020;11.720;2022-10-13T03:20:17;10.83;;;6.83;;
7647;SDS011;3866;48.020;11.720;2022-10-13T03:22:44;8.53;;;6.00;;
7647;SDS011;3866;48.020;11.720;2022-10-13T03:25:12;8.97;;;5.93;;
7647;SDS011;3866;48.020;11.720;2022-10-13T03:27:39;6.90;;;5.70;;
7647;SDS011;3866;48.020;11.720;2022-10-13T03:30:06;9.60;;;6.43;;
7647;SDS011;3866;48.020;11.720;2022-10-13T03:32:34;9.87;;;5.93;;
7647;SDS011;3866;48.020;11.720;2022-10-13T03:35:01;8.63;;;6.23;;
7647;SDS011;3866;48.020;11.720;2022-10-13T03:37:28;7.93;;;5.73;;
7647;SDS011;3866;48.020;11.720;2022-10-13T03:39:55;8.70;;;5.67;;
7647;SDS011;3866;48.020;11.720;2022-10-13T03:42:23;6.70;;;5.43;;
7647;SDS011;3866;48.020;11.720;2022-10-13T03:44:50;7.47;;;5.53;;
7647;SDS011;3866;48.020;11.720;2022-10-13T03:47:17;8.63;;;5.60;;
7647;SDS011;3866;48.020;11.720;2022-10-13T03:49:44;8.67;;;5.50;;
7647;SDS011;3866;48.020;11.720;2022-10-13T03:52:11;9.47;;;5.87;;
7647;SDS011;3866;48.020;11.720;2022-10-13T03:54:38;12.37;;;6.77;;
7647;SDS011;3866;48.020;11.720;2022-10-13T03:57:04;10.37;;;6.40;;
7647;SDS011;3866;48.020;11.720;2022-10-13T03:59:33;7.53;;;6.07;;
7647;SDS011;3866;48.020;11.720;2022-10-13T04:02:00;9.07;;;6.63;;
7647;SDS011;3866;48.020;11.720;2022-10-13T04:04:26;7.70;;;6.53;;
7647;SDS011;3866;48.020;11.720;2022-10-13T04:06:53;10.00;;;6.60;;
7647;SDS011;3866;48.020;11.720;2022-10-13T04:09:20;8.97;;;6.37;;
7647;SDS011;3866;48.020;11.720;2022-10-13T04:11:48;11.10;;;6.00;;
7647;SDS011;3866;48.020;11.720;2022-10-13T04:14:16;7.53;;;5.33;;
7647;SDS011;3866;48.020;11.720;2022-10-13T04:16:45;11.30;;;6.13;;
7647;SDS011;3866;48.020;11.720;2022-10-13T04:19:13;7.83;;;5.70;;
7647;SDS011;3866;48.020;11.720;2022-10-13T04:21:41;10.80;;;6.70;;
7647;SDS011;3866;48.020;11.720;2022-10-13T04:24:09;9.13;;;5.73;;
7647;SDS011;3866;48.020;11.720;2022-10-13T04:26:37;9.03;;;5.70;;
7647;SDS011;3866;48.020;11.720;2022-10-13T04:29:05;10.13;;;6.23;;
7647;SDS011;3866;48.020;11.720;2022-10-13T04:31:33;44.53;;;29.97;;
7647;SDS011;3866;48.020;11.720;2022-10-13T04:34:02;14.00;;;7.80;;
7647;SDS011;3866;48.020;11.720;2022-10-13T04:36:29;9.27;;;6.30;;
7647;SDS011;3866;48.020;11.720;2022-10-13T04:38:56;12.60;;;6.70;;
7647;SDS011;3866;48.020;11.720;2022-10-13T04:41:23;10.40;;;6.53;;
7647;SDS011;3866;48.020;11.720;2022-10-13T04:43:50;8.63;;;5.63;;
7647;SDS011;3866;48.020;11.720;2022-10-13T04:46:19;12.13;;;6.87;;
7647;SDS011;3866;48.020;11.720;2022-10-13T04:48:47;9.13;;;6.40;;
7647;SDS011;3866;48.020;11.720;2022-10-13T04:51:17;9.13;;;6.47;;
7647;SDS011;3866;48.020;11.720;2022-10-13T04:53:46;10.80;;;6.70;;
7647;SDS011;3866;48.020;11.720;2022-10-13T04:56:15;8.93;;;6.43;;
7647;SDS011;3866;48.020;11.720;2022-10-13T04:58:44;10.97;;;6.13;;
7647;SDS011;3866;48.020;11.720;2022-10-13T05:01:12;9.87;;;6.97;;
7647;SDS011;3866;48.020;11.720;2022-10-13T05:03:40;11.10;;;6.57;;
7647;SDS011;3866;48.020;11.720;2022-10-13T05:06:12;8.33;;;5.90;;
7647;SDS011;3866;48.020;11.720;2022-10-13T05:08:42;6.67;;;5.97;;
7647;SDS011;3866;48.020;11.720;2022-10-13T05:11:09;13.10;;;6.67;;
7647;SDS011;3866;48.020;11.720;2022-10-13T05:13:36;9.73;;;6.53;;
7647;SDS011;3866;48.020;11.720;2022-10-13T05:16:06;8.53;;;7.10;;
7647;SDS011;3866;48.020;11.720;2022-10-13T05:18:35;13.97;;;7.27;;
7647;SDS011;3866;48.020;11.720;2022-10-13T05:21:06;12.00;;;8.13;;
7647;SDS011;3866;48.020;11.720;2022-10-13T05:23:33;13.37;;;9.07;;
7647;SDS011;3866;48.020;11.720;2022-10-13T05:26:02;15.50;;;9.60;;
7647;SDS011;3866;48.020;11.720;2022-10-13T05:28:30;11.47;;;8.50;;
7647;SDS011;3866;48.020;11.720;2022-10-13T05:30:57;18.27;;;11.13;;
7647;SDS011;3866;48.020;11.720;2022-10-13T05:33:34;15.50;;;11.43;;
7647;SDS011;3866;48.020;11.720;2022-10-13T05:36:02;17.03;;;11.13;;
7647;SDS011;3866;48.020;11.720;2022-10-13T05:38:30;16.37;;;10.90;;
7647;SDS011;3866;48.020;11.720;2022-10-13T05:41:00;15.97;;;11.03;;
7647;SDS011;3866;48.020;11.720;2022-10-13T05:43:29;17.23;;;11.57;;
7647;SDS011;3866;48.020;11.720;2022-10-13T05:45:59;13.40;;;10.20;;
7647;SDS011;3866;48.020;11.720;2022-10-13T05:48:26;16.47;;;10.90;;
7647;SDS011;3866;48.020;11.720;2022-10-13T05:50:54;15.63;;;11.50;;
7647;SDS011;3866;48.020;11.720;2022-10-13T05:53:24;16.67;;;11.20;;
7647;SDS011;3866;48.020;11.720;2022-10-13T05:55:54;16.37;;;11.37;;
7647;SDS011;3866;48.020;11.720;2022-10-13T05:58:31;17.83;;;11.57;;
7647;SDS011;3866;48.020;11.720;2022-10-13T06:00:59;18.03;;;12.27;;
7647;SDS011;3866;48.020;11.720;2022-10-13T06:03:27;15.83;;;10.97;;
7647;SDS011;3866;48.020;11.720;2022-10-13T06:05:55;17.33;;;11.20;;
7647;SDS011;3866;48.020;11.720;2022-10-13T06:08:22;12.90;;;10.17;;
7647;SDS011;3866;48.020;11.720;2022-10-13T06:10:48;14.17;;;10.03;;
7647;SDS011;3866;48.020;11.720;2022-10-13T06:13:15;14.27;;;11.10;;
7647;SDS011;3866;48.020;11.720;2022-10-13T06:15:44;14.83;;;10.80;;
7647;SDS011;3866;48.020;11.720;2022-10-13T06:18:11;16.97;;;12.17;;
7647;SDS011;3866;48.020;11.720;2022-10-13T06:20:37;15.10;;;11.00;;
7647;SDS011;3866;48.020;11.720;2022-10-13T06:23:04;12.77;;;10.37;;
7647;SDS011;3866;48.020;11.720;2022-10-13T06:25:31;14.23;;;10.07;;
7647;SDS011;3866;48.020;11.720;2022-10-13T06:27:58;14.57;;;9.87;;
7647;SDS011;3866;48.020;11.720;2022-10-13T06:30:25;16.33;;;10.53;;
7647;SDS011;3866;48.020;11.720;2022-10-13T06:32:53;18.60;;;11.23;;
7647;SDS011;3866;48.020;11.720;2022-10-13T06:35:20;14.13;;;9.60;;
7647;SDS011;3866;48.020;11.720;2022-10-13T06:37:48;14.93;;;9.20;;
7647;SDS011;3866;48.020;11.720;2022-10-13T06:40:17;13.87;;;10.13;;
7647;SDS011;3866;48.020;11.720;2022-10-13T06:42:47;17.07;;;10.40;;
7647;SDS011;3866;48.020;11.720;2022-10-13T06:45:15;14.23;;;10.27;;
7647;SDS011;3866;48.020;11.720;2022-10-13T06:47:43;16.17;;;11.30;;
7647;SDS011;3866;48.020;11.720;2022-10-13T06:50:11;13.17;;;10.40;;
7647;SDS011;3866;48.020;11.720;2022-10-13T06:52:38;13.87;;;10.53;;
7647;SDS011;3866;48.020;11.720;2022-10-13T06:55:07;13.40;;;9.57;;
7647;SDS011;3866;48.020;11.720;2022-10-13T06:57:34;12.23;;;8.83;;
7647;SDS011;3866;48.020;11.720;2022-10-13T07:00:01;11.67;;;9.47;;
7647;SDS011;3866;48.020;11.720;2022-10-13T07:02:29;15.53;;;10.40;;
7647;SDS011;3866;48.020;11.720;2022-10-13T07:04:56;13.93;;;10.20;;
7647;SDS011;3866;48.020;11.720;2022-10-13T07:07:24;14.03;;;11.07;;
7647;SDS011;3866;48.020;11.720;2022-10-13T07:09:51;17.97;;;10.67;;
7647;SDS011;3866;48.020;11.720;2022-10-13T07:12:18;14.17;;;10.33;;
7647;SDS011;3866;48.020;11.720;2022-10-13T07:14:46;14.23;;;10.73;;
7647;SDS011;3866;48.020;11.720;2022-10-13T07:17:12;16.47;;;10.37;;
7647;SDS011;3866;48.020;11.720;2022-10-13T07:19:40;14.43;;;10.73;;
7647;SDS011;3866;48.020;11.720;2022-10-13T07:22:06;14.03;;;11.10;;
7647;SDS011;3866;48.020;11.720;2022-10-13T07:24:35;20.07;;;12.20;;
7647;SDS011;3866;48.020;11.720;2022-10-13T07:27:01;14.97;;;11.60;;
7647;SDS011;3866;48.020;11.720;2022-10-13T07:29:28;20.43;;;13.07;;
7647;SDS011;3866;48.020;11.720;2022-10-13T07:31:55;20.47;;;14.03;;
7647;SDS011;3866;48.020;11.720;2022-10-13T07:34:22;21.20;;;13.40;;
7647;SDS011;3866;48.020;11.720;2022-10-13T07:36:49;19.93;;;13.20;;
7647;SDS011;3866;48.020;11.720;2022-10-13T07:39:16;18.10;;;11.73;;
7647;SDS011;3866;48.020;11.720;2022-10-13T07:41:44;18.73;;;13.50;;
7647;SDS011;3866;48.020;11.720;2022-10-13T07:44:11;20.83;;;12.33;;
7647;SDS011;3866;48.020;11.720;2022-10-13T07:46:38;18.10;;;13.00;;
7647;SDS011;3866;48.020;11.720;2022-10-13T07:49:05;19.37;;;13.40;;
7647;SDS011;3866;48.020;11.720;2022-10-13T07:51:32;21.20;;;12.90;;
7647;SDS011;3866;48.020;11.720;2022-10-13T07:53:58;19.33;;;13.47;;
7647;SDS011;3866;48.020;11.720;2022-10-13T07:56:25;32.60;;;21.30;;
7647;SDS011;3866;48.020;11.720;2022-10-13T07:58:54;23.90;;;17.13;;
7647;SDS011;3866;48.020;11.720;2022-10-13T08:01:21;17.10;;;11.87;;
7647;SDS011;3866;48.020;11.720;2022-10-13T08:03:48;14.73;;;12.30;;
7647;SDS011;3866;48.020;11.720;2022-10-13T08:06:15;16.57;;;11.53;;
7647;SDS011;3866;48.020;11.720;2022-10-13T08:08:42;16.00;;;11.07;;
7647;SDS011;3866;48.020;11.720;2022-10-13T08:11:10;15.33;;;11.50;;
7647;SDS011;3866;48.020;11.720;2022-10-13T08:13:38;17.93;;;13.33;;
7647;SDS011;3866;48.020;11.720;2022-10-13T08:16:08;18.57;;;12.63;;
7647;SDS011;3866;48.020;11.720;2022-10-13T08:18:35;18.67;;;12.77;;
7647;SDS011;3866;48.020;11.720;2022-10-13T08:21:02;15.47;;;12.13;;
7647;SDS011;3866;48.020;11.720;2022-10-13T08:23:29;15.73;;;12.20;;
7647;SDS011;3866;48.020;11.720;2022-10-13T08:25:56;17.80;;;12.87;;
7647;SDS011;3866;48.020;11.720;2022-10-13T08:28:24;19.63;;;14.27;;
7647;SDS011;3866;48.020;11.720;2022-10-13T08:30:52;17.50;;;12.57;;
7647;SDS011;3866;48.020;11.720;2022-10-13T08:33:23;19.20;;;13.97;;
7647;SDS011;3866;48.020;11.720;2022-10-13T08:35:50;21.37;;;13.97;;
7647;SDS011;3866;48.020;11.720;2022-10-13T08:38:17;20.17;;;13.73;;
7647;SDS011;3866;48.020;11.720;2022-10-13T08:40:45;21.77;;;14.30;;
7647;SDS011;3866;48.020;11.720;2022-10-13T08:43:14;17.63;;;12.47;;
7647;SDS011;3866;48.020;11.720;2022-10-13T08:45:43;18.37;;;13.97;;
7647;SDS011;3866;48.020;11.720;2022-10-13T08:48:11;22.60;;;14.60;;
7647;SDS011;3866;48.020;11.720;2022-10-13T08:50:44;19.63;;;14.43;;
7647;SDS011;3866;48.020;11.720;2022-10-13T08:53:13;21.30;;;15.23;;
7647;SDS011;3866;48.020;11.720;2022-10-13T08:55:48;22.47;;;14.57;;
7647;SDS011;3866;48.020;11.720;2022-10-13T08:58:19;19.60;;;15.00;;
7647;SDS011;3866;48.020;11.720;2022-10-13T09:00:50;22.67;;;14.23;;
7647;SDS011;3866;48.020;11.720;2022-10-13T09:03:23;21.63;;;14.40;;
7647;SDS011;3866;48.020;11.720;2022-10-13T09:05:57;21.33;;;14.33;;
7647;SDS011;3866;48.020;11.720;2022-10-13T09:08:38;20.07;;;14.73;;
7647;SDS011;3866;48.020;11.720;2022-10-13T09:11:08;22.07;;;14.73;;
7647;SDS011;3866;48.020;11.720;2022-10-13T09:13:37;23.30;;;14.40;;
7647;SDS011;3866;48.020;11.720;2022-10-13T09:16:04;20.10;;;14.67;;
7647;SDS011;3866;48.020;11.720;2022-10-13T09:18:32;20.97;;;14.30;;
7647;SDS011;3866;48.020;11.720;2022-10-13T09:21:13;18.57;;;12.20;;
7647;SDS011;3866;48.020;11.720;2022-10-13T09:23:45;19.47;;;12.63;;
7647;SDS011;3866;48.020;11.720;2022-10-13T09:26:15;19.40;;;13.27;;
7647;SDS011;3866;48.020;11.720;2022-10-13T09:28:45;16.50;;;11.97;;
7647;SDS011;3866;48.020;11.720;2022-10-13T09:31:13;18.77;;;11.70;;
7647;SDS011;3866;48.020;11.720;2022-10-13T09:33:42;18.53;;;11.90;;
7647;SDS011;3866;48.020;11.720;2022-10-13T09:36:12;16.83;;;11.70;;
7647;SDS011;3866;48.020;11.720;2022-10-13T09:38:41;17.83;;;12.37;;
7647;SDS011;3866;48.020;11.720;2022-10-13T09:41:14;13.43;;;11.17;;
7647;SDS011;3866;48.020;11.720;2022-10-13T09:43:56;15.10;;;11.17;;
7647;SDS011;3866;48.020;11.720;2022-10-13T09:46:25;17.20;;;9.80;;
7647;SDS011;3866;48.020;11.720;2022-10-13T09:48:55;14.47;;;10.67;;
7647;SDS011;3866;48.020;11.720;2022-10-13T09:51:29;17.43;;;11.17;;
7647;SDS011;3866;48.020;11.720;2022-10-13T09:53:59;14.83;;;11.23;;
7647;SDS011;3866;48.020;11.720;2022-10-13T09:56:27;19.83;;;12.10;;
7647;SDS011;3866;48.020;11.720;2022-10-13T09:59:03;16.90;;;11.63;;
7647;SDS011;3866;48.020;11.720;2022-10-13T10:01:38;13.53;;;11.27;;
7647;SDS011;3866;48.020;11.720;2022-10-13T10:04:09;16.83;;;11.77;;
7647;SDS011;3866;48.020;11.720;2022-10-13T10:06:40;15.93;;;11.07;;
7647;SDS011;3866;48.020;11.720;2022-10-13T10:09:13;15.63;;;11.37;;
7647;SDS011;3866;48.020;11.720;2022-10-13T10:11:57;17.10;;;10.87;;
7647;SDS011;3866;48.020;11.720;2022-10-13T10:14:25;15.33;;;9.70;;
7647;SDS011;3866;48.020;11.720;2022-10-13T10:16:55;17.07;;;9.33;;
7647;SDS011;3866;48.020;11.720;2022-10-13T10:19:28;15.50;;;10.10;;
7647;SDS011;3866;48.020;11.720;2022-10-13T10:22:09;16.70;;;10.27;;
7647;SDS011;3866;48.020;11.720;2022-10-13T10:24:44;12.30;;;8.67;;
7647;SDS011;3866;48.020;11.720;2022-10-13T10:27:17;17.30;;;9.40;;
7647;SDS011;3866;48.020;11.720;2022-10-13T10:29:50;13.73;;;9.90;;
7647;SDS011;3866;48.020;11.720;2022-10-13T10:32:31;12.00;;;8.73;;
7647;SDS011;3866;48.020;11.720;2022-10-13T10:35:10;14.37;;;9.40;;
7647;SDS011;3866;48.020;11.720;2022-10-13T10:37:47;14.90;;;9.33;;
7647;SDS011;3866;48.020;11.720;2022-10-13T10:40:30;13.07;;;8.77;;
7647;SDS011;3866;48.020;11.720;2022-10-13T10:43:06;13.90;;;8.67;;
7647;SDS011;3866;48.020;11.720;2022-10-13T10:46:00;14.40;;;7.97;;
7647;SDS011;3866;48.020;11.720;2022-10-13T10:48:31;12.23;;;8.00;;
7647;SDS011;3866;48.020;11.720;2022-10-13T10:51:03;11.77;;;7.77;;
7647;SDS011;3866;48.020;11.720;2022-10-13T10:53:36;12.27;;;8.03;;
7647;SDS011;3866;48.020;11.720;2022-10-13T10:56:12;13.30;;;8.67;;
7647;SDS011;3866;48.020;11.720;2022-10-13T10:58:44;11.70;;;8.00;;
7647;SDS011;3866;48.020;11.720;2022-10-13T11:01:28;9.90;;;7.57;;
7647;SDS011;3866;48.020;11.720;2022-10-13T11:04:08;11.03;;;7.80;;
7647;SDS011;3866;48.020;11.720;2022-10-13T11:06:59;11.60;;;7.43;;
7647;SDS011;3866;48.020;11.720;2022-10-13T11:15:52;13.70;;;7.67;;
7647;SDS011;3866;48.020;11.720;2022-10-13T11:21:23;12.43;;;6.83;;
7647;SDS011;3866;48.020;11.720;2022-10-13T11:23:50;12.07;;;7.43;;
7647;SDS011;3866;48.020;11.720;2022-10-13T11:29:15;9.57;;;7.30;;
7647;SDS011;3866;48.020;11.720;2022-10-13T11:31:50;17.47;;;8.47;;
7647;SDS011;3866;48.020;11.720;2022-10-13T11:34:25;11.03;;;7.17;;
7647;SDS011;3866;48.020;11.720;2022-10-13T11:36:55;12.90;;;6.77;;
7647;SDS011;3866;48.020;11.720;2022-10-13T11:39:33;10.03;;;7.47;;
7647;SDS011;3866;48.020;11.720;2022-10-13T11:45:26;9.33;;;6.47;;
7647;SDS011;3866;48.020;11.720;2022-10-13T11:48:31;9.77;;;7.17;;
7647;SDS011;3866;48.020;11.720;2022-10-13T11:51:21;9.57;;;6.37;;
7647;SDS011;3866;48.020;11.720;2022-10-13T11:53:59;6.53;;;5.83;;
7647;SDS011;3866;48.020;11.720;2022-10-13T11:56:47;11.07;;;6.30;;
7647;SDS011;3866;48.020;11.720;2022-10-13T11:59:19;8.97;;;6.50;;
7647;SDS011;3866;48.020;11.720;2022-10-13T12:01:47;11.80;;;6.67;;
7647;SDS011;3866;48.020;11.720;2022-10-13T12:04:21;12.90;;;6.50;;
7647;SDS011;3866;48.020;11.720;2022-10-13T12:06:52;11.47;;;7.30;;
7647;SDS011;3866;48.020;11.720;2022-10-13T12:09:25;11.10;;;7.20;;
7647;SDS011;3866;48.020;11.720;2022-10-13T12:11:57;11.80;;;7.37;;
7647;SDS011;3866;48.020;11.720;2022-10-13T12:14:27;9.33;;;6.37;;
7647;SDS011;3866;48.020;11.720;2022-10-13T12:16:58;9.27;;;6.23;;
7647;SDS011;3866;48.020;11.720;2022-10-13T12:19:28;12.60;;;7.10;;
7647;SDS011;3866;48.020;11.720;2022-10-13T12:21:57;11.23;;;6.77;;
7647;SDS011;3866;48.020;11.720;2022-10-13T12:24:26;10.40;;;6.90;;
7647;SDS011;3866;48.020;11.720;2022-10-13T12:26:55;12.07;;;6.53;;
7647;SDS011;3866;48.020;11.720;2022-10-13T12:29:23;9.23;;;6.57;;
7647;SDS011;3866;48.020;11.720;2022-10-13T12:31:52;11.57;;;6.33;;
7647;SDS011;3866;48.020;11.720;2022-10-13T12:34:22;11.07;;;6.00;;
7647;SDS011;3866;48.020;11.720;2022-10-13T12:36:54;9.33;;;6.47;;
7647;SDS011;3866;48.020;11.720;2022-10-13T12:39:23;7.83;;;6.53;;
7647;SDS011;3866;48.020;11.720;2022-10-13T12:41:52;9.60;;;6.20;;
7647;SDS011;3866;48.020;11.720;2022-10-13T12:44:20;9.77;;;6.33;;
7647;SDS011;3866;48.020;11.720;2022-10-13T12:46:49;9.60;;;6.40;;
7647;SDS011;3866;48.020;11.720;2022-10-13T12:49:19;11.30;;;6.20;;
7647;SDS011;3866;48.020;11.720;2022-10-13T12:51:48;6.90;;;5.50;;
7647;SDS011;3866;48.020;11.720;2022-10-13T12:54:23;7.93;;;5.43;;
7647;SDS011;3866;48.020;11.720;2022-10-13T12:56:53;11.40;;;6.23;;
7647;SDS011;3866;48.020;11.720;2022-10-13T12:59:23;10.23;;;6.37;;
7647;SDS011;3866;48.020;11.720;2022-10-13T13:01:52;9.03;;;6.03;;
7647;SDS011;3866;48.020;11.720;2022-10-13T13:04:28;8.83;;;6.43;;
7647;SDS011;3866;48.020;11.720;2022-10-13T13:07:21;8.73;;;6.20;;
7647;SDS011;3866;48.020;11.720;2022-10-13T13:12:51;13.50;;;6.27;;
7647;SDS011;3866;48.020;11.720;2022-10-13T13:15:26;12.67;;;6.37;;
7647;SDS011;3866;48.020;11.720;2022-10-13T13:20:56;9.13;;;5.90;;
7647;SDS011;3866;48.020;11.720;2022-10-13T13:23:23;7.93;;;6.43;;
7647;SDS011;3866;48.020;11.720;2022-10-13T13:26:09;9.23;;;6.23;;
7647;SDS011;3866;48.020;11.720;2022-10-13T13:28:39;7.97;;;6.07;;
7647;SDS011;3866;48.020;11.720;2022-10-13T13:31:10;6.40;;;5.70;;
7647;SDS011;3866;48.020;11.720;2022-10-13T13:33:37;8.30;;;5.63;;
7647;SDS011;3866;48.020;11.720;2022-10-13T13:36:08;10.67;;;5.90;;
7647;SDS011;3866;48.020;11.720;2022-10-13T13:38:39;9.37;;;6.03;;
7647;SDS011;3866;48.020;11.720;2022-10-13T13:41:08;10.93;;;6.30;;
7647;SDS011;3866;48.020;11.720;2022-10-13T13:43:35;7.90;;;5.57;;
7647;SDS011;3866;48.020;11.720;2022-10-13T13:46:02;8.77;;;6.60;;
7647;SDS011;3866;48.020;11.720;2022-10-13T13:48:29;9.83;;;5.70;;
7647;SDS011;3866;48.020;11.720;2022-10-13T13:50:56;7.90;;;4.93;;
7647;SDS011;3866;48.020;11.720;2022-10-13T13:53:23;10.10;;;6.27;;
7647;SDS011;3866;48.020;11.720;2022-10-13T13:55:50;7.77;;;5.53;;
7647;SDS011;3866;48.020;11.720;2022-10-13T13:58:18;9.77;;;6.03;;
7647;SDS011;3866;48.020;11.720;2022-10-13T14:00:45;9.33;;;6.47;;
7647;SDS011;3866;48.020;11.720;2022-10-13T14:03:13;8.73;;;5.83;;
7647;SDS011;3866;48.020;11.720;2022-10-13T14:05:40;11.17;;;5.93;;
7647;SDS011;3866;48.020;11.720;2022-10-13T14:08:07;8.70;;;5.00;;
7647;SDS011;3866;48.020;11.720;2022-10-13T14:10:34;10.13;;;5.43;;
7647;SDS011;3866;48.020;11.720;2022-10-13T14:13:00;9.73;;;6.00;;
7647;SDS011;3866;48.020;11.720;2022-10-13T14:15:29;7.23;;;5.90;;
7647;SDS011;3866;48.020;11.720;2022-10-13T14:17:55;8.80;;;5.47;;
7647;SDS011;3866;48.020;11.720;2022-10-13T14:20:22;8.80;;;5.87;;
7647;SDS011;3866;48.020;11.720;2022-10-13T14:22:49;9.90;;;5.93;;
7647;SDS011;3866;48.020;11.720;2022-10-13T14:25:16;9.00;;;6.13;;
7647;SDS011;3866;48.020;11.720;2022-10-13T14:27:43;10.03;;;5.47;;
7647;SDS011;3866;48.020;11.720;2022-10-13T14:30:11;9.33;;;5.60;;
7647;SDS011;3866;48.020;11.720;2022-10-13T14:32:40;9.47;;;5.80;;
7647;SDS011;3866;48.020;11.720;2022-10-13T14:35:07;7.43;;;5.60;;
7647;SDS011;3866;48.020;11.720;2022-10-13T14:37:35;7.17;;;4.53;;
7647;SDS011;3866;48.020;11.720;2022-10-13T14:40:02;9.27;;;5.50;;
7647;SDS011;3866;48.020;11.720;2022-10-13T14:42:29;10.50;;;6.10;;
7647;SDS011;3866;48.020;11.720;2022-10-13T14:44:56;10.83;;;6.53;;
7647;SDS011;3866;48.020;11.720;2022-10-13T14:47:23;7.40;;;5.80;;
7647;SDS011;3866;48.020;11.720;2022-10-13T14:49:53;7.83;;;5.80;;
7647;SDS011;3866;48.020;11.720;2022-10-13T14:52:20;8.57;;;5.50;;
7647;SDS011;3866;48.020;11.720;2022-10-13T14:54:46;13.27;;;6.60;;
7647;SDS011;3866;48.020;11.720;2022-10-13T14:57:14;9.13;;;5.83;;
7647;SDS011;3866;48.020;11.720;2022-10-13T14:59:40;8.77;;;5.10;;
7647;SDS011;3866;48.020;11.720;2022-10-13T15:02:08;10.97;;;5.10;;
7647;SDS011;3866;48.020;11.720;2022-10-13T15:04:35;13.43;;;5.70;;
7647;SDS011;3866;48.020;11.720;2022-10-13T15:07:03;8.20;;;5.07;;
7647;SDS011;3866;48.020;11.720;2022-10-13T15:09:31;10.60;;;5.47;;
7647;SDS011;3866;48.020;11.720;2022-10-13T15:11:58;9.43;;;4.97;;
7647;SDS011;3866;48.020;11.720;2022-10-13T15:14:25;9.93;;;5.53;;
7647;SDS011;3866;48.020;11.720;2022-10-13T15:16:52;8.07;;;5.80;;
7647;SDS011;3866;48.020;11.720;2022-10-13T15:19:18;8.47;;;5.73;;
7647;SDS011;3866;48.020;11.720;2022-10-13T15:21:45;7.17;;;5.77;;
7647;SDS011;3866;48.020;11.720;2022-10-13T15:24:13;7.37;;;5.07;;